Time;durP1;ratioP1;P1;durP2;ratioP2;P2;SDS_P1;SDS_P2;PMS_P1;PMS_P2;Temp;Humidity;BMP_temperature;BMP_pressure;BME280_temperature;BME280_humidity;BME280_pressure;Samples;Min_cycle;Max_cycle;Signal;HPM_P1;HPM_P2
2022/01/12 00:01:02;;;;;;;6.68;4.90;;;;;;;22.07;35.19;103496.03;4957092;28;20149;-70
2022/01/12 00:03:28;;;;;;;6.93;4.82;;;;;;;21.93;35.28;103504.28;4959802;28;20034;-69
2022/01/12 00:05:54;;;;;;;7.57;4.75;;;;;;;21.92;35.27;103502.63;4955516;28;20768;-69
2022/01/12 00:08:19;;;;;;;8.02;5.30;;;;;;;21.82;35.27;103507.84;4959862;28;20129;-69
2022/01/12 00:10:45;;;;;;;8.13;5.40;;;;;;;21.68;35.61;103495.72;4957928;28;20535;-69
2022/01/12 00:13:10;;;;;;;7.32;5.25;;;;;;;21.68;35.51;103503.69;4957467;28;20053;-69
2022/01/12 00:15:36;;;;;;;7.68;5.40;;;;;;;21.57;35.62;103509.06;4955238;28;20046;-69
2022/01/12 00:18:02;;;;;;;8.25;5.10;;;;;;;21.55;35.83;103504.84;4962503;28;20042;-69
2022/01/12 00:20:27;;;;;;;8.07;5.10;;;;;;;21.40;36.05;103497.19;4938316;28;20929;-69
2022/01/12 00:22:53;;;;;;;7.10;5.22;;;;;;;21.45;35.99;103491.50;4955901;28;20130;-70
2022/01/12 00:33:16;;;;;;;7.68;5.40;;;;;;;21.16;36.47;103471.78;4956517;28;20047;-70
2022/01/12 00:35:50;;;;;;;6.32;5.20;;;;;;;21.13;36.17;103475.53;4959061;28;20042;-69
2022/01/12 00:38:19;;;;;;;7.97;5.38;;;;;;;21.18;36.11;103475.16;4956856;28;20781;-69
2022/01/12 00:40:48;;;;;;;9.25;6.20;;;;;;;21.06;36.53;103469.91;4961883;28;20038;-69
2022/01/12 00:43:16;;;;;;;9.40;5.65;;;;;;;21.03;36.48;103466.66;4954468;28;20633;-70
2022/01/12 00:45:42;;;;;;;7.55;5.00;;;;;;;21.02;36.44;103473.78;4957767;28;20043;-69
2022/01/12 00:48:11;;;;;;;7.93;5.85;;;;;;;21.05;36.28;103464.72;4956911;28;20526;-69
2022/01/12 00:50:37;;;;;;;7.78;5.28;;;;;;;21.02;36.45;103457.03;4941349;28;20059;-69
2022/01/12 00:53:06;;;;;;;8.45;5.70;;;;;;;20.88;36.74;103460.78;4958286;28;20813;-70
2022/01/12 00:55:32;;;;;;;7.53;5.13;;;;;;;20.83;36.84;103459.47;4955180;28;20049;-69
2022/01/12 00:57:59;;;;;;;7.82;5.80;;;;;;;20.80;36.81;103464.03;4958966;28;20169;-70
2022/01/12 01:00:26;;;;;;;9.68;6.15;;;;;;;20.81;36.76;103472.81;4955339;28;20043;-69
2022/01/12 01:02:56;;;;;;;9.63;5.68;;;;;;;20.80;36.71;103471.13;4957980;28;20118;-70
2022/01/12 01:05:26;;;;;;;10.13;6.03;;;;;;;20.76;36.79;103483.78;4955405;28;20041;-69
2022/01/12 01:07:53;;;;;;;9.30;6.00;;;;;;;20.72;36.72;103474.41;4942673;28;20045;-70
2022/01/12 01:13:01;;;;;;;8.23;5.80;;;;;;;20.62;36.99;103473.44;4956927;28;20661;-70
2022/01/12 01:15:52;;;;;;;7.78;5.20;;;;;;;20.65;36.77;103480.31;4942527;28;20508;-69
2022/01/12 01:26:50;;;;;;;8.50;5.65;;;;;;;20.56;36.88;103499.56;4954538;28;20045;-69
2022/01/12 01:29:16;;;;;;;9.38;5.60;;;;;;;20.59;36.88;103513.41;4937657;28;20045;-69
2022/01/12 01:31:44;;;;;;;10.50;6.35;;;;;;;20.51;37.08;103523.75;4955090;28;20046;-69
2022/01/12 01:34:11;;;;;;;9.15;5.88;;;;;;;20.52;37.01;103546.63;4940491;28;20035;-69
2022/01/12 01:36:42;;;;;;;8.57;5.93;;;;;;;20.55;36.93;103554.31;4944682;28;20030;-69
2022/01/12 01:39:11;;;;;;;13.00;6.03;;;;;;;20.46;37.12;103555.84;4954162;28;20385;-69
2022/01/12 01:41:39;;;;;;;8.02;5.63;;;;;;;20.45;37.05;103562.09;4954433;28;20097;-69
2022/01/12 01:54:56;;;;;;;8.05;5.60;;;;;;;20.39;37.06;103586.38;4959266;28;20120;-69
2022/01/12 01:57:26;;;;;;;10.52;6.63;;;;;;;20.26;37.37;103576.84;4957286;28;20039;-69
2022/01/12 01:59:52;;;;;;;8.57;5.70;;;;;;;20.29;37.19;103584.53;4938010;28;20113;-69
2022/01/12 02:02:17;;;;;;;8.85;5.90;;;;;;;20.23;37.23;103591.97;4936795;28;20515;-69
2022/01/12 02:04:43;;;;;;;8.70;5.80;;;;;;;20.17;37.41;103592.47;4953332;28;20047;-69
2022/01/12 02:07:09;;;;;;;8.52;5.40;;;;;;;20.22;37.22;103608.81;4959040;28;20046;-69
2022/01/12 02:09:35;;;;;;;9.80;5.82;;;;;;;20.20;37.12;103612.53;4954097;28;20038;-69
2022/01/12 02:12:28;;;;;;;11.85;6.53;;;;;;;20.21;37.29;103620.38;4955568;28;20046;-69
2022/01/12 02:14:55;;;;;;;7.63;5.30;;;;;;;20.23;37.28;103622.91;4954409;28;20042;-69
2022/01/12 02:17:26;;;;;;;10.23;6.00;;;;;;;20.15;37.37;103623.47;4955811;28;20039;-69
2022/01/12 02:36:24;;;;;;;9.93;6.47;;;;;;;20.01;37.49;103647.47;4955404;28;20046;-69
2022/01/12 02:41:34;;;;;;;10.90;5.75;;;;;;;20.01;37.44;103644.81;4956461;28;20140;-69
2022/01/12 02:54:42;;;;;;;8.95;5.75;;;;;;;19.90;37.54;103608.56;4954452;28;20065;-69
2022/01/12 02:57:07;;;;;;;11.93;6.20;;;;;;;19.92;37.46;103598.72;4936637;28;20097;-69
2022/01/12 02:59:33;;;;;;;9.80;5.70;;;;;;;19.92;37.50;103601.34;4955844;28;20043;-69
2022/01/12 03:04:58;;;;;;;9.40;6.28;;;;;;;19.82;37.60;103589.78;4953113;28;20065;-69
2022/01/12 03:07:23;;;;;;;11.75;6.18;;;;;;;19.87;37.43;103590.28;4936644;28;20180;-69
2022/01/12 03:09:49;;;;;;;8.77;5.80;;;;;;;19.84;37.57;103594.97;4957236;28;20035;-69
2022/01/12 03:12:15;;;;;;;11.38;6.82;;;;;;;19.80;37.67;103601.44;4953763;28;20568;-70
2022/01/12 03:14:41;;;;;;;11.68;6.85;;;;;;;19.81;37.62;103597.84;4939282;28;20047;-69
2022/01/12 03:17:06;;;;;;;8.73;5.70;;;;;;;19.85;37.56;103610.72;4940938;28;20042;-69
2022/01/12 03:19:32;;;;;;;10.40;6.07;;;;;;;19.79;37.56;103608.53;4937692;28;20040;-69
2022/01/12 03:21:58;;;;;;;10.90;6.20;;;;;;;19.77;37.63;103609.59;4937319;28;20341;-69
2022/01/12 03:24:24;;;;;;;10.60;6.30;;;;;;;19.78;37.57;103613.94;4936156;28;20058;-69
2022/01/12 03:26:50;;;;;;;11.35;6.70;;;;;;;19.79;37.54;103605.03;4939371;28;20054;-69
2022/01/12 03:29:16;;;;;;;10.70;6.50;;;;;;;19.78;37.55;103604.19;4957111;28;20031;-69
2022/01/12 03:31:42;;;;;;;9.95;6.32;;;;;;;19.71;37.61;103605.59;4945457;28;22250;-69
2022/01/12 03:34:24;;;;;;;8.80;5.80;;;;;;;19.74;37.65;103617.72;4958406;28;20050;-69
2022/01/12 03:39:30;;;;;;;11.10;6.53;;;;;;;19.72;37.69;103627.56;4962389;28;20043;-69
2022/01/12 03:41:57;;;;;;;9.55;6.00;;;;;;;19.64;37.75;103625.50;4942092;28;20548;-69
2022/01/12 03:44:22;;;;;;;11.07;6.85;;;;;;;19.64;37.94;103624.66;4948548;28;20042;-71
2022/01/12 03:46:52;;;;;;;10.05;5.97;;;;;;;19.65;37.73;103627.19;4942759;28;20519;-69
2022/01/12 03:49:19;;;;;;;;;;;;;;;19.64;37.81;103624.66;4959470;28;20047;-69
2022/01/12 03:51:45;;;;;;;9.05;6.00;;;;;;;19.63;37.72;103621.16;4960277;28;19918;-70
2022/01/12 03:54:11;;;;;;;10.20;6.00;;;;;;;19.65;37.67;103619.25;4944633;28;20046;-70
2022/01/12 03:56:39;;;;;;;10.52;6.10;;;;;;;19.59;37.78;103623.19;4941133;28;20030;-70
2022/01/12 03:59:05;;;;;;;9.52;5.85;;;;;;;19.64;37.75;103619.38;4944212;28;20047;-70
2022/01/12 04:01:31;;;;;;;9.32;6.15;;;;;;;19.60;37.74;103626.69;4963101;28;20033;-69
2022/01/12 04:09:09;;;;;;;10.50;6.15;;;;;;;19.48;37.96;103623.09;4957144;28;20050;-70
2022/01/12 04:11:34;;;;;;;10.23;5.70;;;;;;;19.51;37.76;103624.66;4944742;28;20027;-70
2022/01/12 04:14:01;;;;;;;10.02;5.97;;;;;;;19.53;37.72;103631.53;4942060;28;20038;-69
2022/01/12 04:16:26;;;;;;;9.57;6.40;;;;;;;19.54;37.70;103635.03;4958188;28;20490;-70
2022/01/12 04:18:52;;;;;;;9.18;5.90;;;;;;;19.54;37.77;103635.03;4944569;28;20046;-70
2022/01/12 04:21:25;;;;;;;8.52;5.65;;;;;;;19.62;37.56;103635.34;4940365;28;20182;-70
2022/01/12 04:23:50;;;;;;;9.52;6.20;;;;;;;19.75;37.32;103632.63;4958017;28;20509;-70
2022/01/12 04:26:16;;;;;;;9.80;6.18;;;;;;;19.84;37.11;103632.81;4959963;28;20042;-70
2022/01/12 04:28:43;;;;;;;9.88;5.90;;;;;;;19.91;37.00;103634.06;4961029;28;20030;-69
2022/01/12 04:31:11;;;;;;;8.05;5.63;;;;;;;19.97;37.01;103639.88;4956843;28;20051;-69
2022/01/12 04:33:39;;;;;;;9.30;6.00;;;;;;;19.98;36.94;103636.25;4957497;28;20066;-69
2022/01/12 04:36:06;;;;;;;8.82;5.78;;;;;;;20.05;36.95;103634.84;4944348;28;20050;-69
2022/01/12 04:38:34;;;;;;;7.78;5.30;;;;;;;20.13;37.01;103637.78;4941481;28;20043;-69
2022/01/12 04:41:03;;;;;;;;;;;;;;;20.27;36.90;103636.72;4956338;28;20327;-70
2022/01/12 04:43:29;;;;;;;7.93;5.28;;;;;;;20.49;36.40;103631.56;4959042;28;19930;-70
2022/01/12 04:50:52;;;;;;;8.02;4.75;;;;;;;20.93;35.66;103635.22;4955058;28;20063;-70
2022/01/12 04:53:19;;;;;;;7.90;5.70;;;;;;;20.99;35.92;103634.75;4940885;28;20555;-70
2022/01/12 04:55:46;;;;;;;7.57;5.05;;;;;;;21.04;35.76;103643.19;4956340;28;20397;-69
2022/01/12 04:58:14;;;;;;;8.02;5.25;;;;;;;21.05;35.94;103631.63;4955282;28;20031;-70
2022/01/12 05:00:41;;;;;;;8.48;5.13;;;;;;;21.06;35.79;103631.50;4954150;28;20047;-70
2022/01/12 05:13:52;;;;;;;6.80;4.75;;;;;;;21.26;35.52;103632.63;4939260;28;20046;-70
2022/01/12 05:16:19;;;;;;;5.95;3.85;;;;;;;21.21;35.96;103640.06;4951795;28;20144;-70
2022/01/12 05:18:46;;;;;;;7.30;4.85;;;;;;;21.31;35.83;103641.03;4941879;28;21106;-70
2022/01/12 05:21:14;;;;;;;5.65;4.30;;;;;;;21.31;35.77;103641.03;4948761;28;20145;-69
2022/01/12 05:23:41;;;;;;;5.63;4.55;;;;;;;21.36;35.90;103649.50;4940120;28;20420;-70
2022/01/12 05:26:07;;;;;;;6.32;4.32;;;;;;;21.35;35.70;103657.53;4954872;28;20050;-70
2022/01/12 05:28:34;;;;;;;6.82;4.72;;;;;;;21.21;35.81;103660.44;4957437;28;20706;-70
2022/01/12 05:31:01;;;;;;;6.35;4.35;;;;;;;21.21;36.01;103671.88;4953893;28;20035;-70
2022/01/12 05:33:28;;;;;;;6.80;4.65;;;;;;;21.25;35.94;103665.38;4943381;28;20562;-69
2022/01/12 05:35:56;;;;;;;6.10;4.07;;;;;;;21.33;35.94;103670.91;4957437;28;20039;-70
2022/01/12 05:38:23;;;;;;;5.95;4.32;;;;;;;21.30;35.92;103678.28;4936951;28;20043;-70
2022/01/12 05:40:58;;;;;;;7.43;4.60;;;;;;;21.29;35.99;103681.88;4939640;28;20026;-70
2022/01/12 05:43:27;;;;;;;6.13;4.13;;;;;;;21.28;35.84;103681.03;4957078;28;20461;-70
2022/01/12 05:45:54;;;;;;;5.93;4.32;;;;;;;21.28;35.91;103681.03;4941162;28;20508;-70
2022/01/12 05:50:49;;;;;;;4.68;3.90;;;;;;;21.41;35.90;103688.88;4939934;28;20062;-71
2022/01/12 05:53:18;;;;;;;6.55;3.90;;;;;;;21.37;35.76;103683.00;4953153;28;20037;-70
2022/01/12 05:55:48;;;;;;;5.72;3.92;;;;;;;21.40;35.99;103674.78;4937019;28;20042;-70
2022/01/12 05:58:14;;;;;;;5.30;3.75;;;;;;;21.36;36.00;103686.59;4941856;28;20097;-70
2022/01/12 06:00:40;;;;;;;5.38;3.75;;;;;;;21.42;35.96;103687.91;4951776;28;20621;-69
2022/01/12 06:03:06;;;;;;;5.43;4.07;;;;;;;21.41;35.70;103696.84;4955862;28;20039;-70
2022/01/12 06:05:32;;;;;;;6.80;4.38;;;;;;;21.46;35.58;103702.59;4952664;28;20038;-70
2022/01/12 06:07:58;;;;;;;5.15;4.03;;;;;;;21.40;35.65;103700.44;4957069;28;20034;-70
2022/01/12 06:10:24;;;;;;;4.90;3.90;;;;;;;21.43;35.71;103697.56;4947302;28;20049;-69
2022/01/12 06:12:51;;;;;;;5.05;3.80;;;;;;;21.53;35.58;103702.94;4955149;28;20670;-69
2022/01/12 06:15:18;;;;;;;5.55;4.45;;;;;;;21.61;35.57;103712.00;4953650;28;20039;-69
2022/01/12 06:17:43;;;;;;;4.95;3.45;;;;;;;21.60;35.43;103717.44;4952555;28;20037;-69
2022/01/12 06:20:09;;;;;;;4.97;3.42;;;;;;;21.59;35.83;103710.44;4956204;28;20563;-69
2022/01/12 06:22:55;;;;;;;5.05;3.55;;;;;;;21.56;35.66;103708.03;4955574;28;20050;-69
2022/01/12 06:25:20;;;;;;;5.07;3.25;;;;;;;21.61;35.67;103717.31;4955793;28;20049;-70
2022/01/12 06:27:53;;;;;;;4.82;3.33;;;;;;;21.63;35.60;103718.03;4956451;28;20034;-70
2022/01/12 06:32:57;;;;;;;4.90;3.45;;;;;;;21.65;35.30;103723.19;4942505;28;20043;-70
2022/01/12 06:35:25;;;;;;;5.90;3.88;;;;;;;21.66;35.43;103736.34;4938651;28;20531;-70
2022/01/12 06:37:52;;;;;;;5.65;3.88;;;;;;;21.66;35.47;103731.03;4941284;28;20039;-71
2022/01/12 06:40:19;;;;;;;4.93;3.67;;;;;;;21.59;35.81;103726.34;4955137;28;20914;-70
2022/01/12 06:42:46;;;;;;;5.00;3.60;;;;;;;21.58;35.78;103729.97;4942944;28;20145;-70
2022/01/12 06:45:13;;;;;;;4.85;3.80;;;;;;;21.44;35.26;103717.78;4956619;28;20042;-70
2022/01/12 06:47:43;;;;;;;4.03;3.20;;;;;;;21.57;35.47;103736.25;4938856;28;20145;-70
2022/01/12 06:50:09;;;;;;;4.65;3.35;;;;;;;21.59;35.47;103736.97;4958060;28;20046;-70
2022/01/12 06:52:35;;;;;;;5.47;3.67;;;;;;;21.61;35.46;103735.03;4953677;28;20580;-70
2022/01/12 06:55:00;;;;;;;3.85;3.30;;;;;;;21.54;35.65;103741.75;4943547;28;20089;-70
2022/01/12 06:57:27;;;;;;;4.72;3.17;;;;;;;21.56;35.60;103743.34;4936589;28;20129;-70
2022/01/12 06:59:52;;;;;;;4.32;3.22;;;;;;;21.50;35.70;103745.63;4938969;28;20093;-70
2022/01/12 07:02:20;;;;;;;4.72;3.42;;;;;;;21.45;35.82;103751.28;4935015;28;20043;-70
2022/01/12 07:04:49;;;;;;;4.40;3.22;;;;;;;21.37;36.00;103756.38;4937128;28;20709;-70
2022/01/12 07:07:17;;;;;;;4.53;3.30;;;;;;;21.35;36.09;103756.47;4940715;28;20041;-70
2022/01/12 07:09:43;;;;;;;5.05;3.40;;;;;;;21.38;36.13;103755.41;4935080;28;20034;-70
2022/01/12 07:12:16;;;;;;;4.30;2.95;;;;;;;21.43;35.79;103761.19;4938574;28;20067;-70
2022/01/12 07:14:42;;;;;;;4.53;3.30;;;;;;;21.35;35.94;103760.91;4937041;28;20042;-70
2022/01/12 07:17:10;;;;;;;4.20;3.40;;;;;;;21.40;35.80;103772.03;4941573;28;20097;-70
2022/01/12 07:19:36;;;;;;;4.30;3.20;;;;;;;21.46;35.72;103781.31;4948255;28;20039;-70
2022/01/12 07:22:02;;;;;;;4.55;3.00;;;;;;;21.50;35.68;103774.78;4934549;28;20051;-70
2022/01/12 07:24:28;;;;;;;5.10;3.33;;;;;;;21.61;35.43;103774.81;4954736;28;20070;-69
2022/01/12 07:26:54;;;;;;;5.43;3.50;;;;;;;21.67;35.63;103785.75;4952363;28;20117;-70
2022/01/12 07:29:19;;;;;;;4.18;3.03;;;;;;;21.67;35.61;103791.06;4951190;28;21470;-70
2022/01/12 07:31:46;;;;;;;4.53;3.10;;;;;;;21.77;35.39;103785.06;4952374;28;20794;-70
2022/01/12 07:34:14;;;;;;;3.35;2.65;;;;;;;21.76;35.28;103786.03;4944207;28;20038;-70
2022/01/12 07:36:40;;;;;;;4.03;2.88;;;;;;;21.79;35.32;103797.22;4955633;28;20121;-70
2022/01/12 07:39:06;;;;;;;4.30;2.92;;;;;;;21.77;35.41;103806.28;4953541;28;20038;-70
2022/01/12 07:41:31;;;;;;;3.92;2.90;;;;;;;21.79;35.09;103801.69;4954032;28;20058;-70
2022/01/12 07:43:57;;;;;;;4.30;2.95;;;;;;;21.80;35.14;103798.91;4955375;28;20685;-70
2022/01/12 07:46:22;;;;;;;4.55;3.08;;;;;;;21.77;35.59;103803.63;4951393;28;20085;-70
2022/01/12 07:48:48;;;;;;;3.30;2.63;;;;;;;21.80;35.21;103804.22;4957217;28;20440;-70
2022/01/12 07:51:14;;;;;;;3.70;2.78;;;;;;;21.77;35.54;103798.31;4952496;28;20054;-70
2022/01/12 07:53:39;;;;;;;3.60;2.70;;;;;;;21.74;35.57;103803.88;4956134;28;20097;-70
2022/01/12 07:56:06;;;;;;;3.78;2.88;;;;;;;21.76;35.53;103799.28;4955122;28;20031;-70
2022/01/12 07:58:31;;;;;;;3.88;2.80;;;;;;;21.67;35.68;103791.06;4958893;28;20047;-70
2022/01/12 08:00:57;;;;;;;3.70;2.80;;;;;;;21.65;35.71;103792.16;4953016;28;20090;-70
2022/01/12 08:03:23;;;;;;;4.75;2.78;;;;;;;21.62;35.79;103798.53;4956661;28;20873;-70
2022/01/12 08:05:49;;;;;;;3.80;2.92;;;;;;;21.57;35.68;103800.72;4956193;28;20050;-70
2022/01/12 08:08:15;;;;;;;3.15;2.58;;;;;;;21.57;35.69;103797.22;4953940;28;20100;-74
2022/01/12 08:10:41;;;;;;;3.75;2.60;;;;;;;21.54;35.51;103805.41;4957773;28;20844;-72
2022/01/12 08:13:06;;;;;;;4.72;2.50;;;;;;;21.56;35.54;103806.16;4958147;28;20039;-71
2022/01/12 08:15:32;;;;;;;2.90;2.42;;;;;;;21.52;35.59;103808.16;4957018;28;20509;-71
2022/01/12 08:17:57;;;;;;;2.95;2.50;;;;;;;21.54;35.80;103816.84;4961242;28;20043;-71
2022/01/12 08:20:26;;;;;;;3.63;2.72;;;;;;;21.52;35.81;103821.44;4961384;28;20046;-71
2022/01/12 08:22:52;;;;;;;3.90;2.53;;;;;;;21.51;35.46;103827.69;4962572;28;20042;-71
2022/01/12 08:25:18;;;;;;;3.78;2.90;;;;;;;21.58;35.53;103826.28;4964290;28;20481;-72
2022/01/12 08:27:43;;;;;;;3.53;2.40;;;;;;;21.62;35.46;103835.66;4961754;28;20480;-71
2022/01/12 08:30:18;;;;;;;3.78;2.70;;;;;;;21.64;35.40;103836.41;4959926;28;20127;-71
2022/01/12 08:32:50;;;;;;;3.15;2.50;;;;;;;21.79;35.14;103836.16;4957430;28;20625;-71
2022/01/12 08:35:17;;;;;;;4.07;2.67;;;;;;;21.73;35.26;103844.63;4960236;28;20046;-71
2022/01/12 08:37:43;;;;;;;3.30;2.55;;;;;;;21.93;34.98;103849.19;4961619;28;20038;-71
2022/01/12 08:40:10;;;;;;;3.75;2.63;;;;;;;21.87;35.03;103850.50;4958168;28;20058;-71
2022/01/12 08:42:36;;;;;;;3.50;2.38;;;;;;;21.64;35.05;103809.88;4960616;28;20043;-71
2022/01/12 08:45:04;;;;;;;3.50;2.25;;;;;;;21.95;34.96;103853.41;4961136;28;20058;-71
2022/01/12 08:47:29;;;;;;;3.17;2.42;;;;;;;21.93;35.03;103863.31;4960411;28;20348;-71
2022/01/12 08:49:55;;;;;;;3.53;2.40;;;;;;;21.88;35.00;103865.47;4962095;28;20047;-71
2022/01/12 08:52:25;;;;;;;3.28;2.50;;;;;;;21.86;35.05;103862.09;4957701;28;20042;-71
2022/01/12 08:54:51;;;;;;;;;;;;;;;21.85;35.35;103870.16;4956503;28;20061;-71
2022/01/12 08:57:16;;;;;;;2.45;2.25;;;;;;;21.82;35.47;103870.41;4958681;28;19965;-71
2022/01/12 08:59:43;;;;;;;3.55;2.40;;;;;;;21.78;35.48;103863.66;4944832;28;20042;-71
2022/01/12 09:02:08;;;;;;;2.42;2.17;;;;;;;21.80;35.21;103867.03;4955841;28;20053;-71
2022/01/12 09:04:34;;;;;;;2.97;2.40;;;;;;;21.68;35.36;103872.31;4958779;28;20038;-71
2022/01/12 09:06:59;;;;;;;3.25;2.22;;;;;;;21.70;35.63;103867.72;4959732;28;20042;-71
2022/01/12 09:09:26;;;;;;;2.63;2.33;;;;;;;21.67;35.55;103860.03;4945342;28;20031;-71
2022/01/12 09:11:52;;;;;;;3.45;2.10;;;;;;;21.62;35.60;103864.84;4958691;28;20133;-71
2022/01/12 09:14:18;;;;;;;2.42;1.83;;;;;;;21.61;35.41;103868.47;4960013;28;20038;-71
2022/01/12 09:16:50;;;;;;;2.30;1.90;;;;;;;21.59;35.44;103873.03;4956069;28;20049;-71
2022/01/12 09:19:15;;;;;;;2.47;2.28;;;;;;;21.53;35.53;103876.16;4959257;28;20515;-71
2022/01/12 09:21:41;;;;;;;3.28;2.13;;;;;;;21.51;35.56;103883.38;4957341;28;20051;-71
2022/01/12 09:24:06;;;;;;;3.15;2.33;;;;;;;21.57;35.64;103896.19;4961705;28;20050;-71
2022/01/12 09:26:32;;;;;;;2.75;1.90;;;;;;;21.50;35.44;103902.91;4940558;28;20042;-71
2022/01/12 09:28:59;;;;;;;3.88;2.10;;;;;;;21.50;35.75;103897.59;4957616;28;20030;-71
2022/01/12 09:31:25;;;;;;;3.97;2.25;;;;;;;21.47;35.59;103915.56;4956043;28;20049;-71
2022/01/12 09:33:50;;;;;;;2.63;2.05;;;;;;;21.53;35.37;103907.13;4957886;28;20043;-72
2022/01/12 09:36:16;;;;;;;2.53;2.10;;;;;;;21.49;35.72;103901.22;4960022;28;20123;-71
2022/01/12 09:38:42;;;;;;;2.30;1.90;;;;;;;21.87;35.53;103903.56;4923359;28;20070;-70
2022/01/12 09:41:08;;;;;;;3.28;1.95;;;;;;;21.96;35.61;103902.03;4954849;28;20047;-70
2022/01/12 09:43:36;;;;;;;2.42;2.00;;;;;;;22.26;35.60;103907.59;4957178;28;20062;-71
2022/01/12 09:46:02;;;;;;;1.83;1.70;;;;;;;22.33;35.10;103909.75;4956958;28;20069;-70
2022/01/12 09:48:33;;;;;;;2.33;1.75;;;;;;;22.36;35.34;103912.16;4958808;28;20105;-69
2022/01/12 09:51:01;;;;;;;2.38;1.90;;;;;;;22.46;35.29;103913.97;4957582;28;20063;-69
2022/01/12 09:53:29;;;;;;;1.95;1.75;;;;;;;22.43;35.09;103914.19;4929456;28;20070;-70
2022/01/12 09:55:54;;;;;;;2.65;1.90;;;;;;;22.57;35.48;103921.06;4947337;28;20041;-68
2022/01/12 09:58:21;;;;;;;2.33;1.88;;;;;;;22.61;35.39;103918.03;4960976;28;20039;-69
2022/01/12 10:01:04;;;;;;;2.45;1.70;;;;;;;22.64;34.90;103922.28;4929834;28;20046;-69
2022/01/12 10:03:30;;;;;;;3.33;1.60;;;;;;;22.71;35.41;103917.31;4958759;28;20039;-70
2022/01/12 10:05:55;;;;;;;2.13;1.60;;;;;;;22.64;35.30;103919.63;4927031;28;20405;-70
2022/01/12 10:08:22;;;;;;;2.03;1.73;;;;;;;22.58;35.70;103922.75;4959509;28;20401;-69
2022/01/12 10:11:09;;;;;;;1.88;1.55;;;;;;;22.65;35.57;103923.97;4915724;28;20092;-71
2022/01/12 10:13:40;;;;;;;1.67;1.58;;;;;;;22.88;35.41;103935.41;4958343;28;20034;-68
2022/01/12 10:16:26;;;;;;;1.45;1.35;;;;;;;22.88;35.53;103938.91;4930261;28;20590;-70
2022/01/12 10:18:57;;;;;;;2.17;1.73;;;;;;;22.86;35.37;103943.50;4960876;28;20027;-69
2022/01/12 10:21:26;;;;;;;1.63;1.50;;;;;;;;;;4941747;28;20035;-68
2022/01/12 10:24:01;;;;;;;1.63;1.40;;;;;;;22.71;35.70;103935.91;4960235;28;20038;-67
2022/01/12 10:26:34;;;;;;;2.13;1.40;;;;;;;;;;4929466;28;20121;-71
2022/01/12 10:29:03;;;;;;;1.58;1.33;;;;;;;22.84;35.48;103937.47;4948307;28;20795;-69
2022/01/12 10:31:28;;;;;;;2.08;1.73;;;;;;;22.84;35.34;103926.00;4956705;28;20496;-68
2022/01/12 10:34:05;;;;;;;2.97;1.60;;;;;;;22.90;35.12;103922.84;4930035;28;20046;-69
2022/01/12 10:36:42;;;;;;;2.17;1.60;;;;;;;22.75;35.72;103922.22;4924682;28;20145;-71
2022/01/12 10:39:10;;;;;;;1.63;1.52;;;;;;;22.80;35.60;103911.22;4932373;28;20051;-72
2022/01/12 10:41:36;;;;;;;2.90;1.45;;;;;;;22.89;35.48;103906.03;4955433;28;20121;-73
2022/01/12 10:44:03;;;;;;;2.05;1.40;;;;;;;22.85;35.58;103907.28;4925047;28;20050;-73
2022/01/12 10:46:30;;;;;;;1.83;1.50;;;;;;;22.85;35.23;103907.28;4958077;28;20042;-73
2022/01/12 10:48:57;;;;;;;2.00;1.50;;;;;;;22.76;35.28;103915.09;4935711;28;20039;-70
2022/01/12 10:51:25;;;;;;;2.83;1.35;;;;;;;22.72;35.03;103908.38;4954861;28;20119;-69
2022/01/12 10:53:52;;;;;;;2.40;1.40;;;;;;;22.56;35.19;103917.56;4927356;28;20065;-69
2022/01/12 10:56:20;;;;;;;1.52;1.42;;;;;;;22.63;34.28;103922.41;4957795;28;20041;-67
2022/01/12 10:58:49;;;;;;;3.20;1.63;;;;;;;22.43;34.58;103913.34;4926858;28;20388;-67
2022/01/12 11:01:19;;;;;;;2.25;1.48;;;;;;;22.54;34.75;103919.50;4947160;28;20055;-67
2022/01/12 11:03:47;;;;;;;3.92;1.50;;;;;;;22.69;34.24;103916.59;4958094;28;20043;-67
2022/01/12 11:06:13;;;;;;;1.20;1.10;;;;;;;22.71;34.19;103914.66;4931607;28;20043;-69
2022/01/12 11:08:40;;;;;;;1.55;1.35;;;;;;;22.74;34.58;103920.53;4940633;28;20030;-69
2022/01/12 11:11:07;;;;;;;1.88;1.35;;;;;;;22.74;34.60;103911.72;4929829;28;20121;-67
2022/01/12 11:13:33;;;;;;;1.45;1.02;;;;;;;22.83;34.39;103911.88;4955185;28;20070;-67
2022/01/12 11:16:03;;;;;;;3.38;1.60;;;;;;;22.73;34.38;103907.41;4922200;28;20091;-67
2022/01/12 11:18:31;;;;;;;;;;;;;;;22.77;34.41;103907.00;4947407;28;20038;-68
2022/01/12 11:21:35;;;;;;;1.40;1.30;;;;;;;22.74;34.65;103904.59;4958120;28;20016;-69
2022/01/12 11:24:04;;;;;;;2.90;1.55;;;;;;;23.04;34.42;103900.44;4938530;28;20042;-66
2022/01/12 11:26:31;;;;;;;4.78;1.65;;;;;;;22.92;34.41;103902.28;4949999;28;20046;-68
2022/01/12 11:28:57;;;;;;;1.50;1.33;;;;;;;22.95;34.22;103901.19;4934284;28;20420;-68
2022/01/12 11:31:28;;;;;;;1.77;1.40;;;;;;;22.97;34.13;103909.88;4957843;28;20049;-68
2022/01/12 11:33:53;;;;;;;3.75;1.67;;;;;;;23.22;33.79;103896.25;4921212;28;20042;-67
2022/01/12 11:36:25;;;;;;;2.53;1.55;;;;;;;22.97;34.36;103896.59;4958037;28;20365;-69
2022/01/12 11:39:11;;;;;;;2.42;1.70;;;;;;;22.98;34.25;103887.66;4925393;28;20245;-67
2022/01/12 11:41:39;;;;;;;3.10;1.70;;;;;;;22.96;34.33;103886.94;4960624;28;20078;-67
2022/01/12 11:44:07;;;;;;;3.38;1.80;;;;;;;23.05;34.02;103887.03;4930701;28;20386;-67
2022/01/12 11:46:56;;;;;;;2.28;1.58;;;;;;;23.08;33.79;103880.59;4958657;28;20365;-70
2022/01/12 11:49:29;;;;;;;3.05;1.63;;;;;;;23.07;34.20;103873.59;4928066;28;20065;-69
2022/01/12 11:51:57;;;;;;;2.70;1.58;;;;;;;22.95;34.27;103877.28;4962196;28;20046;-68
2022/01/12 11:54:31;;;;;;;2.42;1.60;;;;;;;22.92;34.04;103870.41;4960439;28;20637;-67
2022/01/12 11:56:59;;;;;;;1.20;1.10;;;;;;;22.89;33.92;103868.84;4941627;28;20046;-68
2022/01/12 11:59:28;;;;;;;2.58;1.50;;;;;;;22.94;34.15;103876.44;4957030;28;20748;-67
2022/01/12 12:02:10;;;;;;;1.50;1.08;;;;;;;22.94;33.92;103878.25;4937544;28;20042;-68
2022/01/12 12:04:36;;;;;;;2.63;1.58;;;;;;;22.98;33.82;103887.66;4943545;28;20114;-69
2022/01/12 12:07:14;;;;;;;1.38;1.27;;;;;;;22.90;34.15;103894.44;4940478;28;20046;-68
2022/01/12 12:09:44;;;;;;;1.50;1.40;;;;;;;22.80;34.17;103893.50;4961161;28;20045;-67
2022/01/12 12:12:19;;;;;;;1.80;1.58;;;;;;;22.74;34.15;103893.13;4932567;28;20093;-68
2022/01/12 12:14:56;;;;;;;2.20;1.45;;;;;;;22.79;34.33;103897.09;4959100;28;20051;-68
2022/01/12 12:17:24;;;;;;;1.92;1.08;;;;;;;22.44;34.18;103843.34;4929239;28;20038;-68
2022/01/12 12:19:51;;;;;;;2.30;1.40;;;;;;;22.79;34.29;103899.75;4961480;28;20504;-68
2022/01/12 12:22:25;;;;;;;2.58;1.48;;;;;;;22.65;34.44;103909.84;4919172;28;20299;-68
2022/01/12 12:25:16;;;;;;;1.67;1.30;;;;;;;22.53;34.67;103907.19;4961939;28;20045;-68
2022/01/12 12:27:45;;;;;;;1.80;1.33;;;;;;;22.57;34.45;103907.78;4930599;28;20080;-68
2022/01/12 12:30:16;;;;;;;2.40;1.30;;;;;;;22.44;34.61;103904.41;4957747;28;20026;-66
2022/01/12 12:32:47;;;;;;;1.60;1.20;;;;;;;22.44;34.44;103896.47;4932181;28;20732;-67
2022/01/12 12:35:23;;;;;;;2.58;1.30;;;;;;;22.40;34.90;103887.91;4958587;28;20046;-67
2022/01/12 12:38:01;;;;;;;2.47;1.42;;;;;;;22.45;34.46;103887.56;4921782;28;26103;-66
2022/01/12 12:40:40;;;;;;;0.90;0.90;;;;;;;22.51;34.56;103889.69;4962578;28;20047;-67
2022/01/12 12:43:22;;;;;;;2.63;1.40;;;;;;;22.45;34.58;103887.56;4930310;28;20607;-67
2022/01/12 12:45:56;;;;;;;2.55;1.52;;;;;;;22.43;34.43;103885.00;4958081;28;20039;-67
2022/01/12 12:48:33;;;;;;;1.60;1.30;;;;;;;22.50;34.57;103880.91;4928499;28;20043;-67
2022/01/12 12:51:12;;;;;;;1.83;1.20;;;;;;;22.64;34.01;103889.56;4956912;28;20047;-68
2022/01/12 12:53:40;;;;;;;2.00;1.30;;;;;;;22.61;34.59;103890.63;4917162;28;20146;-67
2022/01/12 12:56:16;;;;;;;4.00;1.73;;;;;;;22.47;34.38;103894.41;4960332;28;20170;-68
2022/01/12 12:58:43;;;;;;;4.95;2.10;;;;;;;22.54;34.44;103895.59;4934561;28;20715;-67
2022/01/12 13:01:11;;;;;;;2.20;1.48;;;;;;;22.55;34.21;103891.13;4959884;28;20058;-67
2022/01/12 13:03:39;;;;;;;2.17;1.33;;;;;;;22.42;34.54;103895.75;4936604;28;20133;-67